Time;durP1;ratioP1;P1;durP2;ratioP2;P2;SDS_P1;SDS_P2;PMS_P1;PMS_P2;Temp;Humidity;BMP_temperature;BMP_pressure;BME280_temperature;BME280_humidity;BME280_pressure;Samples;Min_cycle;Max_cycle;Signal;HPM_P1;HPM_P2
2022/09/11 00:04:19;;;;;;;2.93;2.63;;;17.50;99.90;;;;;;20679516;28;20241;-71
2022/09/11 00:14:20;;;;;;;4.37;2.00;;;17.60;99.90;;;;;;20678244;28;20730;-70
2022/09/11 00:24:22;;;;;;;3.73;2.40;;;17.50;99.90;;;;;;20677700;28;20234;-75
2022/09/11 00:34:24;;;;;;;3.23;2.47;;;17.50;99.90;;;;;;20677525;28;20625;-73
2022/09/11 00:44:26;;;;;;;6.80;2.40;;;17.50;99.90;;;;;;20676201;28;20237;-72
2022/09/11 00:54:34;;;;;;;3.07;2.40;;;17.40;99.90;;;;;;20675279;28;20205;-70
2022/09/11 01:04:36;;;;;;;4.33;2.90;;;17.30;99.90;;;;;;20675006;28;20708;-74
2022/09/11 01:14:51;;;;;;;3.97;3.40;;;17.30;99.90;;;;;;20673544;28;20237;-70
2022/09/11 01:25:11;;;;;;;3.77;3.47;;;17.30;99.90;;;;;;20673052;28;20598;-71
2022/09/11 01:35:23;;;;;;;4.10;3.60;;;17.40;99.90;;;;;;20672506;28;20209;-74
2022/09/11 01:45:27;;;;;;;5.30;4.10;;;17.40;99.90;;;;;;20671076;28;20695;-74
2022/09/11 01:55:35;;;;;;;4.60;4.20;;;17.30;99.90;;;;;;20670538;28;20221;-71
2022/09/11 02:05:49;;;;;;;5.97;5.37;;;17.30;99.90;;;;;;20670112;28;20238;-74
2022/09/11 02:16:02;;;;;;;7.23;4.60;;;17.30;99.90;;;;;;20668972;28;20356;-72
2022/09/11 02:26:06;;;;;;;8.27;5.27;;;17.30;99.90;;;;;;20668416;28;20773;-75
2022/09/11 02:36:11;;;;;;;6.70;6.00;;;17.30;99.90;;;;;;20668321;28;20213;-72
2022/09/11 02:46:34;;;;;;;6.37;5.77;;;17.20;99.90;;;;;;20667474;28;20230;-71
2022/09/11 02:56:48;;;;;;;10.13;6.13;;;17.30;99.90;;;;;;20666092;28;20204;-74
2022/09/11 03:06:50;;;;;;;7.70;6.90;;;17.30;99.90;;;;;;20666394;28;20288;-72
2022/09/11 03:16:52;;;;;;;7.50;5.57;;;17.20;99.90;;;;;;20666394;28;20229;-75
2022/09/11 03:26:54;;;;;;;7.67;5.90;;;17.20;99.90;;;;;;20665486;28;20276;-71
2022/09/11 03:36:55;;;;;;;6.97;5.70;;;17.10;99.90;;;;;;20665409;28;20658;-70
2022/09/11 03:46:57;;;;;;;6.80;5.63;;;17.20;99.90;;;;;;20665345;28;20643;-70
2022/09/11 03:56:58;;;;;;;5.30;4.77;;;17.20;99.90;;;;;;20664570;28;20210;-70
2022/09/11 04:07:00;;;;;;;12.97;9.93;;;17.20;99.90;;;;;;20675921;28;20595;-71
2022/09/11 04:17:02;;;;;;;5.97;4.87;;;17.20;99.90;;;;;;20678473;28;20239;-69
2022/09/11 04:27:04;;;;;;;5.53;4.93;;;17.20;99.90;;;;;;20677488;28;20240;-69
2022/09/11 04:37:06;;;;;;;5.07;4.57;;;17.00;99.90;;;;;;20676785;28;20221;-70
2022/09/11 04:47:07;;;;;;;7.20;4.20;;;17.00;99.90;;;;;;20676184;28;20240;-70
2022/09/11 04:57:09;;;;;;;10.10;6.43;;;16.90;99.90;;;;;;20657720;28;20733;-69
2022/09/11 05:07:13;;;;;;;8.83;6.30;;;16.90;99.90;;;;;;20674604;28;20234;-70
2022/09/11 05:17:14;;;;;;;8.20;5.70;;;16.80;99.90;;;;;;20673074;28;20602;-70
2022/09/11 05:27:16;;;;;;;5.60;4.97;;;16.70;99.90;;;;;;20672848;28;20702;-67
2022/09/11 05:37:18;;;;;;;5.93;4.47;;;16.70;99.90;;;;;;20672196;28;20216;-69
2022/09/11 05:47:19;;;;;;;4.43;4.00;;;16.80;99.90;;;;;;20671832;28;20237;-69
2022/09/11 05:57:21;;;;;;;4.30;3.90;;;16.90;99.90;;;;;;20670361;28;20206;-69
2022/09/11 06:07:23;;;;;;;4.27;3.40;;;17.00;99.90;;;;;;20669958;28;20240;-70
2022/09/11 06:17:24;;;;;;;6.10;4.30;;;17.00;99.90;;;;;;20669223;28;20241;-72
2022/09/11 06:27:27;;;;;;;4.43;4.03;;;17.20;99.90;;;;;;20668122;28;20249;-71
2022/09/11 06:37:28;;;;;;;5.23;4.17;;;17.30;99.90;;;;;;20667815;28;20666;-69
2022/09/11 06:47:30;;;;;;;5.63;4.97;;;17.30;99.90;;;;;;20627625;28;20242;-71
2022/09/11 06:57:32;;;;;;;6.60;5.37;;;17.40;99.90;;;;;;20585214;28;20282;-70
2022/09/11 07:07:34;;;;;;;10.50;7.30;;;17.40;99.90;;;;;;20585995;28;20285;-74
2022/09/11 07:17:35;;;;;;;10.07;8.80;;;17.40;99.90;;;;;;20630162;28;20704;-70
2022/09/11 07:27:37;;;;;;;9.40;8.17;;;17.30;99.90;;;;;;20662349;28;20686;-68
2022/09/11 07:37:39;;;;;;;11.33;8.27;;;17.30;99.90;;;;;;20668301;28;20213;-73
2022/09/11 07:47:40;;;;;;;10.13;8.60;;;17.30;99.90;;;;;;20677671;28;20233;-73
2022/09/11 07:57:45;;;;;;;11.70;10.50;;;17.40;99.90;;;;;;20679296;28;20206;-73
2022/09/11 08:07:48;;;;;;;14.23;9.77;;;17.50;99.90;;;;;;20678465;28;20297;-74
2022/09/11 08:17:50;;;;;;;12.50;9.80;;;17.70;99.90;;;;;;20678477;28;20294;-67
2022/09/11 08:27:52;;;;;;;10.53;9.20;;;17.80;99.90;;;;;;20677014;28;20264;-69
2022/09/11 08:37:54;;;;;;;13.30;9.80;;;17.90;99.90;;;;;;20674480;28;20218;-67
2022/09/11 08:47:57;;;;;;;13.37;10.90;;;18.10;99.90;;;;;;20672736;28;20248;-73
2022/09/11 08:58:13;;;;;;;17.37;11.07;;;18.20;99.40;;;;;;20673472;28;20211;-73
2022/09/11 09:08:36;;;;;;;12.03;9.00;;;18.30;99.20;;;;;;20674625;28;20240;-70
2022/09/11 09:18:49;;;;;;;12.60;9.27;;;18.50;99.00;;;;;;20674473;28;20242;-73
2022/09/11 09:28:56;;;;;;;10.33;9.00;;;18.50;98.20;;;;;;20672991;28;20237;-69
2022/09/11 09:38:58;;;;;;;9.50;8.40;;;18.60;98.20;;;;;;20672130;28;20231;-71
2022/09/11 09:49:00;;;;;;;10.50;8.60;;;18.80;98.10;;;;;;20671579;28;20250;-73
2022/09/11 09:59:10;;;;;;;8.67;7.73;;;18.80;97.60;;;;;;20669941;28;20212;-67
2022/09/11 10:09:18;;;;;;;8.23;7.13;;;18.90;97.40;;;;;;20668981;28;20632;-67
2022/09/11 10:19:41;;;;;;;8.93;6.63;;;19.30;97.30;;;;;;20669312;28;20285;-68
2022/09/11 10:29:49;;;;;;;6.53;5.40;;;19.60;96.00;;;;;;20668050;28;20240;-68
2022/09/11 10:39:52;;;;;;;5.70;5.10;;;19.70;94.80;;;;;;20650416;28;20213;-68
2022/09/11 10:50:22;;;;;;;6.40;5.67;;;20.10;94.50;;;;;;20667296;28;20327;-73
2022/09/11 11:00:25;;;;;;;7.77;5.63;;;20.00;94.10;;;;;;20666950;28;20736;-67
2022/09/11 11:10:39;;;;;;;10.33;5.43;;;20.00;94.20;;;;;;20668924;28;20277;-72
2022/09/11 11:20:57;;;;;;;5.83;5.23;;;20.40;93.80;;;;;;20682417;28;20237;-71
2022/09/11 11:31:38;;;;;;;6.57;4.60;;;20.70;93.30;;;;;;20682279;28;20261;-73
2022/09/11 11:42:02;;;;;;;5.80;5.20;;;20.90;92.30;;;;;;20681013;28;20221;-72
2022/09/11 11:52:30;;;;;;;5.07;4.53;;;20.80;90.30;;;;;;20662920;28;20663;-74
2022/09/11 12:02:52;;;;;;;4.53;4.00;;;20.80;90.00;;;;;;20679510;28;20241;-72
2022/09/11 12:12:57;;;;;;;4.07;3.67;;;20.90;88.70;;;;;;20677029;28;20241;-72
2022/09/11 12:22:59;;;;;;;5.67;3.40;;;21.20;84.50;;;;;;20673305;28;20241;-71
2022/09/11 12:33:01;;;;;;;3.90;3.50;;;21.50;82.70;;;;;;20676179;28;20300;-73
2022/09/11 12:43:34;;;;;;;4.23;3.10;;;21.80;82.50;;;;;;20676310;28;20261;-71
2022/09/11 12:53:37;;;;;;;21.10;14.70;;;22.00;80.70;;;;;;20675810;28;20210;-71
2022/09/11 13:03:55;;;;;;;11.73;9.43;;;22.00;78.60;;;;;;20675249;28;20597;-71
2022/09/11 13:13:58;;;;;;;8.80;7.20;;;21.90;78.00;;;;;;20673719;28;20389;-72
2022/09/11 13:24:00;;;;;;;7.97;5.70;;;22.00;78.40;;;;;;20673480;28;20264;-71
2022/09/11 13:34:05;;;;;;;4.33;3.93;;;22.00;76.90;;;;;;20672156;28;20214;-72
2022/09/11 13:44:12;;;;;;;3.80;3.50;;;21.90;74.70;;;;;;20671795;28;20292;-72
2022/09/11 13:54:17;;;;;;;4.70;3.40;;;21.80;75.70;;;;;;20671037;28;20214;-72
2022/09/11 14:04:20;;;;;;;4.20;3.80;;;21.80;76.20;;;;;;20670791;28;20226;-73
2022/09/11 14:14:25;;;;;;;4.30;3.47;;;21.80;75.90;;;;;;20669564;28;20241;-70
2022/09/11 14:24:35;;;;;;;4.23;3.77;;;21.70;76.70;;;;;;20668725;28;20377;-71
2022/09/11 14:34:36;;;;;;;4.70;4.30;;;21.90;76.70;;;;;;20668015;28;20663;-71
2022/09/11 14:44:40;;;;;;;5.63;5.03;;;21.80;76.30;;;;;;20667812;28;20268;-74
2022/09/11 14:54:42;;;;;;;5.63;5.10;;;21.70;76.70;;;;;;20667048;28;20213;-69
2022/09/11 15:04:45;;;;;;;15.03;8.43;;;21.60;78.20;;;;;;20666560;28;20600;-72
2022/09/11 15:14:47;;;;;;;6.83;5.37;;;21.40;79.10;;;;;;20666601;28;20326;-71
2022/09/11 15:24:59;;;;;;;7.43;6.40;;;21.20;78.00;;;;;;20665889;28;20611;-69
2022/09/11 15:35:02;;;;;;;7.60;5.53;;;21.10;77.90;;;;;;20665764;28;20276;-72
2022/09/11 15:45:04;;;;;;;8.43;5.70;;;21.10;78.00;;;;;;20665747;28;20234;-70
2022/09/11 15:55:06;;;;;;;6.00;5.33;;;21.00;78.10;;;;;;20664725;28;20216;-71
2022/09/11 16:05:08;;;;;;;7.83;5.77;;;21.10;78.40;;;;;;20679315;28;20237;-71
2022/09/11 16:15:11;;;;;;;5.83;5.23;;;21.20;78.40;;;;;;20678900;28;20260;-72
2022/09/11 16:25:13;;;;;;;6.33;5.60;;;21.20;78.80;;;;;;20677923;28;20245;-71
2022/09/11 16:35:15;;;;;;;6.17;5.13;;;21.30;79.50;;;;;;20677379;28;20210;-71
2022/09/11 16:45:18;;;;;;;11.80;7.40;;;21.20;80.00;;;;;;20677061;28;20295;-71
2022/09/11 16:55:20;;;;;;;11.90;9.07;;;21.00;80.50;;;;;;20658596;28;20225;-71
2022/09/11 17:05:23;;;;;;;7.73;6.87;;;20.90;81.00;;;;;;20675125;28;20291;-71
2022/09/11 17:15:26;;;;;;;10.97;9.00;;;20.90;81.60;;;;;;20673457;28;20296;-72
2022/09/11 17:25:28;;;;;;;6.80;5.90;;;20.80;82.30;;;;;;20673729;28;20245;-72
2022/09/11 17:35:30;;;;;;;9.40;7.20;;;20.70;83.20;;;;;;20672728;28;20276;-72
2022/09/11 17:45:32;;;;;;;6.83;6.13;;;20.60;84.10;;;;;;20672091;28;20243;-71
2022/09/11 17:55:34;;;;;;;9.67;6.33;;;20.50;85.30;;;;;;20670231;28;20210;-71
2022/09/11 18:05:40;;;;;;;7.33;5.80;;;20.40;86.50;;;;;;20668565;28;20268;-72
2022/09/11 18:15:42;;;;;;;7.60;6.20;;;20.30;87.40;;;;;;20667811;28;20789;-69
2022/09/11 18:25:44;;;;;;;8.80;6.00;;;20.30;88.20;;;;;;20664286;28;20254;-71
2022/09/11 18:35:46;;;;;;;11.23;6.00;;;20.10;88.90;;;;;;20666397;28;20204;-70
2022/09/11 18:45:47;;;;;;;5.93;5.33;;;20.00;89.80;;;;;;20665792;28;20247;-71
2022/09/11 18:55:59;;;;;;;7.17;5.80;;;19.80;90.40;;;;;;20662398;28;20227;-69
2022/09/11 19:06:07;;;;;;;8.37;5.77;;;19.50;91.30;;;;;;20664641;28;20285;-75
2022/09/11 19:16:10;;;;;;;9.03;6.00;;;19.40;91.90;;;;;;20666244;28;20239;-74
2022/09/11 19:26:18;;;;;;;7.53;6.43;;;19.10;92.70;;;;;;20665946;28;20260;-73
2022/09/11 19:36:22;;;;;;;10.47;6.30;;;18.90;93.20;;;;;;20675225;28;20202;-72
2022/09/11 19:46:26;;;;;;;7.20;6.47;;;18.50;94.00;;;;;;20681193;28;20231;-72
2022/09/11 19:56:30;;;;;;;10.73;6.33;;;18.40;94.70;;;;;;20679784;28;20285;-72
2022/09/11 20:06:33;;;;;;;7.57;6.30;;;18.10;95.20;;;;;;20679531;28;20235;-74
2022/09/11 20:16:35;;;;;;;10.90;6.77;;;18.10;95.60;;;;;;20677683;28;20241;-72
2022/09/11 20:26:36;;;;;;;7.93;7.13;;;18.00;95.90;;;;;;20678218;28;20234;-72
2022/09/11 20:36:38;;;;;;;7.60;6.80;;;18.00;96.20;;;;;;20677490;28;20215;-71
2022/09/11 20:46:42;;;;;;;9.90;7.07;;;17.80;96.50;;;;;;20676596;28;20238;-71
2022/09/11 20:56:45;;;;;;;8.57;6.87;;;17.60;96.70;;;;;;20673950;28;20206;-73
2022/09/11 21:06:46;;;;;;;8.07;6.33;;;17.50;97.10;;;;;;20675122;28;20232;-72
2022/09/11 21:16:48;;;;;;;10.30;6.50;;;17.40;97.20;;;;;;20674551;28;20606;-75
2022/09/11 21:26:49;;;;;;;7.57;6.77;;;17.20;97.50;;;;;;20673558;28;20624;-75
2022/09/11 21:36:51;;;;;;;8.27;6.90;;;17.10;97.70;;;;;;20672850;28;20206;-72
2022/09/11 21:46:53;;;;;;;8.97;6.60;;;17.00;97.90;;;;;;20672346;28;20236;-69
2022/09/11 21:56:55;;;;;;;11.90;7.00;;;16.90;98.10;;;;;;20670527;28;20209;-71
2022/09/11 22:06:57;;;;;;;9.67;6.97;;;16.80;98.40;;;;;;20670319;28;20241;-72
2022/09/11 22:16:59;;;;;;;7.63;6.93;;;16.80;98.40;;;;;;20668179;28;20244;-69
2022/09/11 22:27:00;;;;;;;9.00;7.17;;;16.70;98.60;;;;;;20665939;28;20259;-72
2022/09/11 22:37:03;;;;;;;9.93;6.93;;;16.60;98.50;;;;;;20665349;28;20233;-72
2022/09/11 22:47:04;;;;;;;8.00;6.80;;;16.60;98.50;;;;;;20665053;28;20730;-72
2022/09/11 22:57:06;;;;;;;8.13;7.23;;;16.40;98.60;;;;;;20664180;28;20204;-73
2022/09/11 23:07:17;;;;;;;8.70;7.03;;;16.40;98.80;;;;;;20662471;28;20609;-72
2022/09/11 23:17:18;;;;;;;8.63;6.90;;;16.30;98.80;;;;;;20629163;28;1043270;-72
2022/09/11 23:27:20;;;;;;;9.73;6.60;;;16.20;98.90;;;;;;20648701;28;20269;-72
2022/09/11 23:37:22;;;;;;;8.40;6.87;;;16.20;98.90;;;;;;20665741;28;20270;-72
2022/09/11 23:47:24;;;;;;;8.17;6.73;;;16.20;98.80;;;;;;20665589;28;20238;-74
2022/09/11 23:57:25;;;;;;;8.00;7.20;;;16.00;98.90;;;;;;20665015;28;20213;-73
